createdAt,value
2023-02-26T00:01:55.559Z,74.10
2023-02-26T00:04:25.363Z,73.90
2023-02-26T00:06:57.009Z,74.40
2023-02-26T00:09:26.371Z,74.70
2023-02-26T00:11:57.004Z,74.70
2023-02-26T00:14:27.317Z,74.60
2023-02-26T00:16:58.689Z,74.50
2023-02-26T00:19:28.808Z,74.30
2023-02-26T00:21:59.100Z,75.00
2023-02-26T00:24:29.050Z,74.20
2023-02-26T00:26:59.161Z,74.50
2023-02-26T00:29:29.370Z,74.10
2023-02-26T00:32:19.390Z,74.10
2023-02-26T00:34:49.965Z,74.00
2023-02-26T00:37:21.042Z,73.40
2023-02-26T00:39:52.286Z,73.30
2023-02-26T00:42:23.533Z,73.30
2023-02-26T00:44:53.956Z,72.80
2023-02-26T00:47:28.269Z,72.10
2023-02-26T00:50:05.274Z,72.00
2023-02-26T00:52:36.195Z,71.90
2023-02-26T00:55:09.095Z,71.80
2023-02-26T00:57:39.020Z,71.00
2023-02-26T01:00:09.286Z,69.70
2023-02-26T01:02:39.767Z,69.90
2023-02-26T01:05:16.821Z,68.80
2023-02-26T01:07:47.980Z,68.10
2023-02-26T01:10:18.353Z,67.70
2023-02-26T01:12:49.040Z,67.10
2023-02-26T01:15:20.488Z,67.30
2023-02-26T01:17:54.744Z,67.20
2023-02-26T01:20:25.793Z,67.20
2023-02-26T01:22:59.958Z,67.00
2023-02-26T01:25:30.995Z,66.80
2023-02-26T01:28:01.110Z,65.50
2023-02-26T01:30:38.417Z,63.00
2023-02-26T01:33:26.024Z,63.10
2023-02-26T01:35:57.266Z,63.30
2023-02-26T01:38:43.682Z,63.10
2023-02-26T01:41:17.625Z,63.40
2023-02-26T01:43:57.244Z,63.10
2023-02-26T01:46:44.582Z,63.10
2023-02-26T01:49:18.779Z,62.10
2023-02-26T01:51:49.740Z,62.20
2023-02-26T01:54:21.718Z,62.50
2023-02-26T01:57:03.155Z,61.50
2023-02-26T01:59:34.013Z,61.70
2023-02-26T02:02:05.131Z,61.10
2023-02-26T02:04:35.486Z,61.20
2023-02-26T02:07:05.965Z,60.90
2023-02-26T02:09:38.371Z,61.20
2023-02-26T02:12:12.508Z,61.50
2023-02-26T02:14:59.381Z,61.00
2023-02-26T02:17:31.038Z,60.60
2023-02-26T02:20:11.705Z,60.40
2023-02-26T02:23:00.880Z,60.60
2023-02-26T02:25:48.610Z,60.20
2023-02-26T02:28:19.756Z,59.80
2023-02-26T02:30:54.121Z,59.40
2023-02-26T02:33:24.962Z,59.00
2023-02-26T02:35:58.965Z,59.50
2023-02-26T02:38:30.675Z,59.30
2023-02-26T02:41:02.128Z,58.70
2023-02-26T02:49:03.602Z,56.70
2023-02-26T02:51:43.607Z,56.90
2023-02-26T02:54:14.713Z,57.10
2023-02-26T02:56:48.435Z,56.80
2023-02-26T02:59:22.100Z,57.00
2023-02-26T03:02:12.008Z,56.20
2023-02-26T03:04:43.038Z,56.30
2023-02-26T03:07:12.870Z,56.40
2023-02-26T03:09:43.005Z,56.10
2023-02-26T03:12:12.809Z,56.60
2023-02-26T03:14:43.217Z,56.20
2023-02-26T03:17:23.495Z,55.50
2023-02-26T03:22:51.799Z,55.50
2023-02-26T03:25:23.123Z,56.00
2023-02-26T03:27:57.647Z,55.10
2023-02-26T03:30:38.254Z,54.30
2023-02-26T03:33:18.885Z,54.10
2023-02-26T03:35:55.748Z,53.80
2023-02-26T03:38:29.676Z,53.70
2023-02-26T03:41:03.794Z,53.80
2023-02-26T03:43:36.075Z,53.90
2023-02-26T03:46:07.144Z,54.00
2023-02-26T03:48:37.492Z,52.60
2023-02-26T03:51:10.092Z,53.20
2023-02-26T03:53:47.478Z,52.60
2023-02-26T03:56:21.595Z,52.50
2023-02-26T03:58:51.708Z,52.30
2023-02-26T04:01:24.542Z,51.90
2023-02-26T04:03:58.353Z,51.70
2023-02-26T04:06:28.474Z,51.90
2023-02-26T04:08:58.619Z,52.10
2023-02-26T04:11:29.460Z,52.00
2023-02-26T04:13:59.342Z,52.50
2023-02-26T04:16:29.297Z,51.50
2023-02-26T04:18:59.473Z,51.30
2023-02-26T04:21:29.355Z,51.90
2023-02-26T04:23:59.111Z,51.10
2023-02-26T04:26:49.047Z,50.40
2023-02-26T04:29:18.971Z,50.50
2023-02-26T04:31:48.908Z,50.00
2023-02-26T04:34:18.932Z,49.50
2023-02-26T04:36:48.835Z,49.80
2023-02-26T04:39:18.625Z,49.80
2023-02-26T04:41:48.752Z,49.70
2023-02-26T04:44:18.681Z,50.00
2023-02-26T04:46:50.894Z,49.20
2023-02-26T04:49:20.961Z,48.50
2023-02-26T04:51:51.029Z,48.70
2023-02-26T04:54:21.198Z,48.10
2023-02-26T04:56:51.145Z,48.80
2023-02-26T04:59:21.175Z,48.80
2023-02-26T05:01:51.473Z,48.50
2023-02-26T05:04:21.939Z,48.00
2023-02-26T05:06:51.877Z,48.60
2023-02-26T05:09:21.793Z,48.60
2023-02-26T05:11:51.876Z,48.20
2023-02-26T05:14:23.155Z,48.30
2023-02-26T05:16:53.157Z,47.60
2023-02-26T05:19:23.226Z,47.50
2023-02-26T05:21:53.678Z,48.30
2023-02-26T05:24:23.744Z,48.00
2023-02-26T05:26:54.269Z,48.10
2023-02-26T05:29:24.239Z,47.30
2023-02-26T05:31:54.287Z,47.50
2023-02-26T05:34:24.487Z,47.60
2023-02-26T05:36:54.588Z,47.50
2023-02-26T05:39:24.774Z,47.10
2023-02-26T05:41:56.116Z,46.60
2023-02-26T05:44:29.888Z,46.60
2023-02-26T05:46:59.803Z,46.20
2023-02-26T05:49:30.055Z,46.90
2023-02-26T05:52:00.004Z,47.20
2023-02-26T05:54:29.927Z,46.90
2023-02-26T05:56:59.987Z,47.50
2023-02-26T05:59:29.948Z,46.80
2023-02-26T06:02:00.046Z,47.00
2023-02-26T06:04:29.874Z,46.40
2023-02-26T06:07:06.528Z,46.30
2023-02-26T06:09:36.412Z,46.00
2023-02-26T06:12:06.292Z,46.30
2023-02-26T06:14:36.706Z,46.90
2023-02-26T06:17:06.901Z,46.70
2023-02-26T06:19:36.875Z,46.30
2023-02-26T06:22:06.965Z,46.40
2023-02-26T06:24:37.113Z,46.20
2023-02-26T06:27:07.063Z,46.50
2023-02-26T06:29:38.451Z,46.20
2023-02-26T06:32:08.611Z,45.70
2023-02-26T06:34:38.664Z,45.50
2023-02-26T06:37:08.890Z,45.60
2023-02-26T06:39:41.101Z,45.90
2023-02-26T06:42:11.093Z,45.80
2023-02-26T06:44:41.058Z,46.20
2023-02-26T06:47:12.391Z,45.70
2023-02-26T06:49:42.237Z,46.80
2023-02-26T06:52:12.262Z,46.20
2023-02-26T06:54:42.390Z,46.40
2023-02-26T06:57:12.613Z,45.50
2023-02-26T06:59:42.865Z,45.40
2023-02-26T07:02:14.008Z,45.70
2023-02-26T07:04:44.040Z,45.60
2023-02-26T07:07:14.332Z,44.90
2023-02-26T07:09:45.967Z,44.90
2023-02-26T07:12:15.998Z,45.40
2023-02-26T07:14:47.026Z,45.60
2023-02-26T07:17:18.148Z,45.80
2023-02-26T07:19:48.296Z,45.10
2023-02-26T07:22:19.755Z,45.30
2023-02-26T07:24:49.827Z,44.70
2023-02-26T07:27:20.366Z,45.30
2023-02-26T07:29:50.472Z,45.00
2023-02-26T07:32:20.637Z,45.20
2023-02-26T07:34:52.582Z,45.20
2023-02-26T07:37:22.022Z,45.40
2023-02-26T07:39:51.943Z,45.60
2023-02-26T07:42:22.085Z,45.10
2023-02-26T07:44:52.075Z,45.50
2023-02-26T07:47:22.176Z,45.40
2023-02-26T07:49:52.047Z,45.00
2023-02-26T07:52:21.875Z,45.00
2023-02-26T07:54:51.960Z,44.90
2023-02-26T07:57:23.857Z,45.00
2023-02-26T07:59:53.289Z,45.10
2023-02-26T08:02:24.445Z,45.20
2023-02-26T08:04:57.199Z,45.50
2023-02-26T08:07:27.162Z,45.50
2023-02-26T08:09:58.400Z,45.50
2023-02-26T08:12:28.407Z,45.40
2023-02-26T08:14:58.520Z,45.60
2023-02-26T08:17:28.633Z,45.50
2023-02-26T08:20:01.207Z,45.60
2023-02-26T08:22:33.756Z,46.30
2023-02-26T08:25:03.690Z,45.70
2023-02-26T08:27:36.780Z,45.40
2023-02-26T08:30:08.665Z,45.10
2023-02-26T08:32:41.301Z,46.00
2023-02-26T08:35:11.646Z,46.10
2023-02-26T08:37:41.528Z,46.60
2023-02-26T08:40:15.116Z,46.20
2023-02-26T08:42:44.356Z,45.90
2023-02-26T08:45:14.530Z,46.30
2023-02-26T08:47:55.482Z,46.10
2023-02-26T08:50:15.483Z,46.30
2023-02-26T08:52:45.251Z,46.30
2023-02-26T08:55:15.300Z,45.90
2023-02-26T08:57:45.696Z,46.00
2023-02-26T09:00:35.648Z,45.80
2023-02-26T09:03:06.168Z,46.10
2023-02-26T09:05:36.062Z,46.60
2023-02-26T09:08:06.086Z,47.10
2023-02-26T09:10:36.545Z,46.70
2023-02-26T09:13:07.966Z,46.50
2023-02-26T09:15:38.116Z,45.70
2023-02-26T09:18:07.981Z,46.00
2023-02-26T09:20:38.307Z,46.20
2023-02-26T09:23:08.237Z,46.20
2023-02-26T09:25:41.791Z,46.40
2023-02-26T09:28:11.776Z,46.40
2023-02-26T09:30:41.925Z,46.50
2023-02-26T09:33:11.748Z,46.30
2023-02-26T09:35:43.034Z,46.50
2023-02-26T09:38:16.083Z,46.70
2023-02-26T09:41:05.866Z,47.00
2023-02-26T09:43:53.780Z,47.40
2023-02-26T09:46:40.099Z,47.20
2023-02-26T09:49:14.228Z,47.40
2023-02-26T09:51:44.757Z,47.30
2023-02-26T09:54:15.797Z,47.10
2023-02-26T09:56:46.014Z,47.40
2023-02-26T09:59:15.968Z,47.60
2023-02-26T10:01:53.080Z,47.70
2023-02-26T10:04:25.046Z,47.90
2023-02-26T10:06:56.385Z,47.90
2023-02-26T10:09:27.377Z,48.00
2023-02-26T10:12:01.294Z,47.80
2023-02-26T10:14:32.722Z,48.30
2023-02-26T10:17:03.989Z,48.40
2023-02-26T10:22:10.022Z,48.20
2023-02-26T10:22:14.816Z,48.20
2023-02-26T10:24:41.245Z,48.30
2023-02-26T10:27:24.423Z,48.40
2023-02-26T10:30:04.126Z,48.30
2023-02-26T10:32:37.098Z,48.70
2023-02-26T10:35:09.553Z,48.80
2023-02-26T10:37:40.409Z,49.20
2023-02-26T10:40:23.231Z,49.60
2023-02-26T10:42:56.902Z,49.60
2023-02-26T10:45:30.685Z,49.70
2023-02-26T10:48:10.469Z,49.80
2023-02-26T10:50:41.405Z,49.90
2023-02-26T10:53:12.249Z,49.80
2023-02-26T10:55:45.863Z,49.90
2023-02-26T10:58:16.753Z,50.00
2023-02-26T11:00:48.035Z,50.20
2023-02-26T11:03:18.935Z,50.60
2023-02-26T11:05:49.922Z,50.50
2023-02-26T11:08:36.272Z,50.60
2023-02-26T11:11:07.009Z,50.70
2023-02-26T11:13:37.934Z,50.80
2023-02-26T11:16:08.668Z,51.10
2023-02-26T11:18:39.677Z,51.10
2023-02-26T11:21:10.183Z,51.30
2023-02-26T11:23:40.972Z,51.50
2023-02-26T11:26:11.822Z,51.80
2023-02-26T11:28:42.695Z,51.90
2023-02-26T11:31:13.524Z,52.20
2023-02-26T11:33:44.979Z,52.40
2023-02-26T11:36:18.895Z,52.40
2023-02-26T11:38:49.734Z,52.60
2023-02-26T11:41:20.975Z,54.00
2023-02-26T11:43:51.977Z,54.80
2023-02-26T11:46:22.890Z,56.00
2023-02-26T11:48:53.037Z,56.70
2023-02-26T11:51:24.128Z,57.10
2023-02-26T11:53:55.331Z,56.70
2023-02-26T11:56:29.328Z,56.80
2023-02-26T11:59:00.293Z,57.10
2023-02-26T12:01:31.117Z,57.10
2023-02-26T12:04:02.128Z,57.20
2023-02-26T12:06:35.017Z,57.20
2023-02-26T12:09:05.172Z,57.50
2023-02-26T12:11:36.005Z,57.50
2023-02-26T12:14:23.492Z,57.70
2023-02-26T12:17:03.519Z,57.70
2023-02-26T12:19:37.175Z,57.80
2023-02-26T12:22:08.065Z,58.10
2023-02-26T12:24:54.013Z,58.40
2023-02-26T12:27:28.265Z,58.30
2023-02-26T12:30:11.558Z,58.50
2023-02-26T12:32:48.663Z,58.70
2023-02-26T12:35:22.306Z,58.70
2023-02-26T12:38:02.225Z,59.00
2023-02-26T12:40:48.248Z,58.90
2023-02-26T12:43:25.144Z,59.00
2023-02-26T12:46:00.625Z,59.10
2023-02-26T12:48:51.563Z,59.00
2023-02-26T12:51:37.942Z,58.90
2023-02-26T12:54:25.025Z,59.00
2023-02-26T12:57:01.812Z,59.00
2023-02-26T12:59:32.979Z,59.00
2023-02-26T13:02:06.747Z,59.20
2023-02-26T13:04:41.156Z,59.20
2023-02-26T13:07:28.664Z,59.20
2023-02-26T13:10:04.149Z,59.20
2023-02-26T13:12:35.020Z,59.40
2023-02-26T13:15:06.023Z,59.40
2023-02-26T13:17:49.282Z,59.40
2023-02-26T13:20:22.567Z,59.40
2023-02-26T13:22:56.617Z,59.30
2023-02-26T13:25:27.491Z,59.30
2023-02-26T13:27:58.580Z,59.30
2023-02-26T13:30:29.522Z,59.30
2023-02-26T13:33:00.762Z,59.30
2023-02-26T13:35:31.747Z,59.30
2023-02-26T13:38:02.668Z,59.20
2023-02-26T13:40:33.578Z,59.30
2023-02-26T13:43:04.488Z,59.30
2023-02-26T13:45:38.144Z,59.30
2023-02-26T13:48:24.111Z,59.30
2023-02-26T13:51:09.619Z,59.30
2023-02-26T13:53:40.592Z,59.40
2023-02-26T13:56:11.426Z,59.40
2023-02-26T13:58:41.813Z,59.50
2023-02-26T14:01:21.566Z,59.70
2023-02-26T14:03:52.499Z,59.60
2023-02-26T14:06:42.043Z,59.60
2023-02-26T14:09:28.604Z,59.70
2023-02-26T14:12:04.047Z,59.80
2023-02-26T14:14:37.966Z,59.90
2023-02-26T14:17:11.760Z,61.00
2023-02-26T14:19:42.710Z,60.10
2023-02-26T14:22:24.320Z,60.10
2023-02-26T14:24:55.382Z,60.30
2023-02-26T14:27:27.596Z,60.30
2023-02-26T14:30:01.797Z,60.40
2023-02-26T14:32:49.515Z,60.40
2023-02-26T14:35:29.636Z,60.50
2023-02-26T14:38:00.612Z,60.60
2023-02-26T14:40:31.819Z,60.70
2023-02-26T14:43:02.802Z,60.90
2023-02-26T14:45:33.954Z,61.00
2023-02-26T14:48:05.134Z,61.00
2023-02-26T14:50:52.432Z,61.10
2023-02-26T14:56:39.318Z,61.60
2023-02-26T14:59:26.713Z,61.60
2023-02-26T15:02:17.545Z,61.90
2023-02-26T15:04:48.625Z,62.00
2023-02-26T15:07:36.667Z,62.10
2023-02-26T15:10:10.948Z,62.20
2023-02-26T15:12:42.174Z,62.60
2023-02-26T15:15:19.029Z,62.60
2023-02-26T15:17:52.953Z,62.50
2023-02-26T15:20:28.055Z,63.10
2023-02-26T15:23:08.339Z,63.10
2023-02-26T15:25:39.298Z,63.30
2023-02-26T15:28:09.641Z,63.10
2023-02-26T15:30:39.674Z,63.40
2023-02-26T15:33:10.706Z,63.60
2023-02-26T15:35:40.413Z,63.60
2023-02-26T15:38:11.289Z,64.00
2023-02-26T15:40:41.754Z,64.10
2023-02-26T15:43:12.040Z,64.10
2023-02-26T15:45:49.412Z,64.30
2023-02-26T15:48:20.388Z,64.60
2023-02-26T15:50:52.771Z,64.40
2023-02-26T15:53:23.737Z,64.20
2023-02-26T15:55:54.762Z,64.70
2023-02-26T15:58:34.678Z,64.70
2023-02-26T16:01:05.124Z,64.90
2023-02-26T16:03:36.132Z,64.90
2023-02-26T16:06:06.207Z,65.10
2023-02-26T16:08:36.087Z,65.10
2023-02-26T16:11:07.100Z,65.40
2023-02-26T16:13:40.786Z,65.30
2023-02-26T16:16:11.986Z,65.50
2023-02-26T16:18:42.754Z,65.70
2023-02-26T16:21:13.869Z,65.40
2023-02-26T16:23:47.759Z,65.40
2023-02-26T16:26:21.494Z,65.60
2023-02-26T16:28:52.561Z,65.60
2023-02-26T16:31:23.602Z,65.70
2023-02-26T16:33:57.880Z,66.00
2023-02-26T16:36:29.468Z,66.20
2023-02-26T16:39:00.506Z,66.00
2023-02-26T16:41:31.507Z,66.50
2023-02-26T16:44:02.485Z,66.60
2023-02-26T16:46:36.764Z,66.40
2023-02-26T16:49:07.747Z,66.80
2023-02-26T16:51:41.257Z,66.70
2023-02-26T16:54:16.469Z,67.40
2023-02-26T16:56:47.448Z,67.40
2023-02-26T16:59:22.703Z,67.40
2023-02-26T17:01:53.696Z,67.20
2023-02-26T17:04:24.895Z,67.50
2023-02-26T17:06:54.671Z,67.50
2023-02-26T17:09:38.792Z,67.20
2023-02-26T17:12:15.673Z,67.40
2023-02-26T17:14:47.189Z,67.80
2023-02-26T17:17:17.005Z,67.70
2023-02-26T17:19:46.772Z,67.50
2023-02-26T17:22:17.729Z,67.60
2023-02-26T17:24:48.802Z,67.60
2023-02-26T17:27:19.801Z,67.40
2023-02-26T17:29:51.900Z,67.30
2023-02-26T17:32:23.517Z,67.30
2023-02-26T17:34:53.312Z,67.70
2023-02-26T17:37:23.391Z,67.50
2023-02-26T17:39:53.224Z,67.40
2023-02-26T17:42:23.995Z,67.40
2023-02-26T17:44:55.576Z,67.90
2023-02-26T17:47:29.238Z,67.60
2023-02-26T17:49:59.038Z,67.90
2023-02-26T17:52:28.805Z,67.90
2023-02-26T17:54:58.609Z,67.60
2023-02-26T17:57:29.314Z,67.90
2023-02-26T17:59:59.128Z,68.10
2023-02-26T18:02:28.905Z,67.70
2023-02-26T18:04:58.747Z,67.90
2023-02-26T18:07:31.165Z,67.80
2023-02-26T18:09:59.899Z,67.80
2023-02-26T18:12:29.699Z,67.40
2023-02-26T18:14:59.503Z,67.50
2023-02-26T18:17:35.282Z,67.50
2023-02-26T18:20:06.541Z,67.50
2023-02-26T18:22:36.268Z,68.00
2023-02-26T18:25:06.256Z,66.90
2023-02-26T18:27:37.874Z,66.50
2023-02-26T18:30:11.500Z,66.10
2023-02-26T18:32:41.432Z,65.80
2023-02-26T18:35:11.626Z,65.10
2023-02-26T18:37:41.565Z,65.00
2023-02-26T18:40:14.519Z,64.60
2023-02-26T18:42:44.016Z,64.20
2023-02-26T18:45:24.302Z,63.80
2023-02-26T18:47:54.252Z,63.50
2023-02-26T18:50:31.881Z,63.40
2023-02-26T18:52:55.532Z,62.90
2023-02-26T18:55:25.325Z,62.50
2023-02-26T18:57:55.100Z,61.10
2023-02-26T19:00:24.926Z,61.00
2023-02-26T19:02:55.124Z,59.90
2023-02-26T19:05:25.856Z,59.80
2023-02-26T19:07:56.006Z,59.60
2023-02-26T19:10:25.892Z,59.30
2023-02-26T19:12:55.641Z,58.70
2023-02-26T19:15:25.826Z,58.90
2023-02-26T19:17:56.047Z,58.70
2023-02-26T19:20:25.791Z,58.80
2023-02-26T19:22:55.650Z,57.60
2023-02-26T19:25:26.811Z,57.00
2023-02-26T19:27:57.908Z,57.00
2023-02-26T19:30:27.632Z,56.80
2023-02-26T19:32:57.644Z,57.40
2023-02-26T19:35:31.481Z,57.90
2023-02-26T19:41:10.732Z,57.30
2023-02-26T19:43:40.442Z,56.90
2023-02-26T19:46:10.200Z,58.60
2023-02-26T19:48:40.490Z,59.60
2023-02-26T19:51:10.317Z,56.90
2023-02-26T19:53:40.137Z,57.10
2023-02-26T19:56:10.626Z,57.60
2023-02-26T19:58:40.442Z,58.00
2023-02-26T20:01:10.262Z,58.20
2023-02-26T20:03:39.970Z,58.60
2023-02-26T20:06:11.125Z,58.80
2023-02-26T20:08:41.025Z,59.10
2023-02-26T20:11:10.939Z,59.30
2023-02-26T20:13:40.629Z,59.40
2023-02-26T20:16:11.814Z,59.30
2023-02-26T20:18:42.234Z,59.40
2023-02-26T20:21:12.252Z,59.40
2023-02-26T20:23:42.351Z,59.30
2023-02-26T20:26:13.342Z,59.30
2023-02-26T20:28:43.319Z,59.10
2023-02-26T20:31:13.708Z,59.10
2023-02-26T20:33:43.606Z,59.30
2023-02-26T20:36:13.179Z,59.40
2023-02-26T20:38:44.084Z,59.10
2023-02-26T20:41:13.968Z,59.00
2023-02-26T20:43:46.589Z,59.00
2023-02-26T20:46:16.347Z,59.10
2023-02-26T20:48:46.116Z,58.50
2023-02-26T20:51:16.630Z,58.30
2023-02-26T20:53:46.918Z,58.30
2023-02-26T20:56:16.596Z,57.90
2023-02-26T20:58:46.200Z,58.00
2023-02-26T21:01:16.110Z,57.50
2023-02-26T21:03:45.712Z,57.90
2023-02-26T21:06:15.495Z,57.30
2023-02-26T21:08:45.245Z,57.50
2023-02-26T21:11:15.002Z,57.70
2023-02-26T21:13:45.943Z,57.40
2023-02-26T21:16:15.787Z,57.50
2023-02-26T21:18:45.654Z,57.70
2023-02-26T21:21:15.489Z,57.70
2023-02-26T21:23:45.394Z,57.40
2023-02-26T21:26:18.133Z,57.30
2023-02-26T21:28:49.399Z,57.60
2023-02-26T21:31:20.035Z,57.00
2023-02-26T21:33:49.772Z,56.90
2023-02-26T21:36:20.724Z,57.00
2023-02-26T21:38:50.497Z,56.90
2023-02-26T21:41:21.511Z,57.00
2023-02-26T21:43:51.082Z,56.80
2023-02-26T21:46:20.761Z,57.10
2023-02-26T21:48:51.834Z,56.90
2023-02-26T21:51:22.501Z,57.20
2023-02-26T21:53:52.234Z,57.40
2023-02-26T21:56:21.828Z,58.10
2023-02-26T21:58:51.388Z,58.20
2023-02-26T22:01:21.038Z,58.90
2023-02-26T22:03:51.069Z,59.60
2023-02-26T22:06:20.903Z,61.00
2023-02-26T22:08:50.673Z,61.40
2023-02-26T22:11:20.234Z,62.20
2023-02-26T22:13:50.129Z,62.90
2023-02-26T22:16:19.948Z,63.50
2023-02-26T22:18:49.710Z,63.50
2023-02-26T22:21:19.426Z,62.90
2023-02-26T22:23:49.467Z,63.30
2023-02-26T22:26:19.276Z,64.10
2023-02-26T22:28:49.074Z,63.70
2023-02-26T22:31:18.711Z,63.70
2023-02-26T22:33:48.454Z,63.00
2023-02-26T22:36:18.158Z,62.60
2023-02-26T22:38:47.965Z,62.30
2023-02-26T22:41:17.869Z,62.50
2023-02-26T22:43:47.563Z,62.80
2023-02-26T22:46:18.083Z,62.70
2023-02-26T22:48:47.851Z,62.70
2023-02-26T22:51:17.508Z,62.70
2023-02-26T22:53:47.229Z,62.80
2023-02-26T22:56:17.425Z,62.70
2023-02-26T22:58:47.120Z,62.60
2023-02-26T23:01:16.805Z,62.80
2023-02-26T23:03:46.687Z,62.70
2023-02-26T23:06:16.504Z,63.10
2023-02-26T23:08:46.491Z,63.10
2023-02-26T23:11:16.058Z,63.50
2023-02-26T23:13:47.137Z,63.80
2023-02-26T23:16:17.035Z,63.80
2023-02-26T23:18:48.256Z,63.90
2023-02-26T23:21:18.111Z,63.70
2023-02-26T23:23:47.733Z,63.80
2023-02-26T23:26:17.948Z,64.00
2023-02-26T23:28:47.787Z,64.20
2023-02-26T23:31:17.643Z,64.30
2023-02-26T23:33:47.545Z,64.60
2023-02-26T23:36:17.262Z,64.40
2023-02-26T23:38:47.105Z,64.40
2023-02-26T23:41:16.787Z,64.80
2023-02-26T23:43:46.603Z,64.40
2023-02-26T23:46:16.394Z,64.30
2023-02-26T23:48:46.173Z,64.40
2023-02-26T23:51:16.473Z,64.00
2023-02-26T23:53:46.178Z,64.00
2023-02-26T23:56:15.866Z,64.90
2023-02-26T23:58:45.600Z,64.50
